sensor_id;sensor_type;location;lat;lon;timestamp;P1;durP1;ratioP1;P2;durP2;ratioP2
3527;SDS011;1778;47.966;7.854;2023-07-02T00:00:55;3.47;;;3.37;;
3527;SDS011;1778;47.966;7.854;2023-07-02T00:01:58;3.23;;;3.13;;
3527;SDS011;1778;47.966;7.854;2023-07-02T00:03:00;3.63;;;3.50;;
3527;SDS011;1778;47.966;7.854;2023-07-02T00:04:02;3.53;;;3.43;;
3527;SDS011;1778;47.966;7.854;2023-07-02T00:05:04;3.93;;;3.70;;
3527;SDS011;1778;47.966;7.854;2023-07-02T00:06:07;3.43;;;3.33;;
3527;SDS011;1778;47.966;7.854;2023-07-02T00:07:09;3.87;;;3.67;;
3527;SDS011;1778;47.966;7.854;2023-07-02T00:08:11;3.30;;;3.20;;
3527;SDS011;1778;47.966;7.854;2023-07-02T00:09:13;4.30;;;4.10;;
3527;SDS011;1778;47.966;7.854;2023-07-02T00:10:15;3.93;;;3.73;;
3527;SDS011;1778;47.966;7.854;2023-07-02T00:11:17;3.57;;;3.47;;
3527;SDS011;1778;47.966;7.854;2023-07-02T00:12:19;4.30;;;4.00;;
3527;SDS011;1778;47.966;7.854;2023-07-02T00:13:20;3.77;;;3.67;;
3527;SDS011;1778;47.966;7.854;2023-07-02T00:14:22;3.63;;;3.50;;
3527;SDS011;1778;47.966;7.854;2023-07-02T00:15:23;3.80;;;3.70;;
3527;SDS011;1778;47.966;7.854;2023-07-02T00:16:25;4.27;;;4.07;;
3527;SDS011;1778;47.966;7.854;2023-07-02T00:17:27;3.77;;;3.47;;
3527;SDS011;1778;47.966;7.854;2023-07-02T00:18:29;4.47;;;4.23;;
3527;SDS011;1778;47.966;7.854;2023-07-02T00:19:34;3.80;;;3.60;;
3527;SDS011;1778;47.966;7.854;2023-07-02T00:20:36;4.00;;;3.80;;
3527;SDS011;1778;47.966;7.854;2023-07-02T00:21:39;4.00;;;3.70;;
3527;SDS011;1778;47.966;7.854;2023-07-02T00:22:41;3.80;;;3.70;;
3527;SDS011;1778;47.966;7.854;2023-07-02T00:23:46;3.73;;;3.53;;
3527;SDS011;1778;47.966;7.854;2023-07-02T00:24:49;3.60;;;3.50;;
3527;SDS011;1778;47.966;7.854;2023-07-02T00:25:52;4.10;;;3.90;;
3527;SDS011;1778;47.966;7.854;2023-07-02T00:26:54;4.00;;;3.80;;
3527;SDS011;1778;47.966;7.854;2023-07-02T00:27:56;3.60;;;3.50;;
3527;SDS011;1778;47.966;7.854;2023-07-02T00:28:57;3.77;;;3.57;;
3527;SDS011;1778;47.966;7.854;2023-07-02T00:30:00;3.23;;;3.13;;
3527;SDS011;1778;47.966;7.854;2023-07-02T00:31:02;3.93;;;3.73;;
3527;SDS011;1778;47.966;7.854;2023-07-02T00:32:04;3.70;;;3.50;;
3527;SDS011;1778;47.966;7.854;2023-07-02T00:33:06;3.33;;;3.23;;
3527;SDS011;1778;47.966;7.854;2023-07-02T00:34:08;3.57;;;3.40;;
3527;SDS011;1778;47.966;7.854;2023-07-02T00:35:10;3.37;;;3.27;;
3527;SDS011;1778;47.966;7.854;2023-07-02T00:36:14;4.30;;;3.80;;
3527;SDS011;1778;47.966;7.854;2023-07-02T00:37:16;4.10;;;3.90;;
3527;SDS011;1778;47.966;7.854;2023-07-02T00:38:17;3.80;;;3.70;;
3527;SDS011;1778;47.966;7.854;2023-07-02T00:39:20;4.03;;;3.83;;
3527;SDS011;1778;47.966;7.854;2023-07-02T00:40:22;3.50;;;3.40;;
3527;SDS011;1778;47.966;7.854;2023-07-02T00:41:23;3.93;;;3.83;;
3527;SDS011;1778;47.966;7.854;2023-07-02T00:42:25;3.60;;;3.50;;
3527;SDS011;1778;47.966;7.854;2023-07-02T00:43:31;4.20;;;3.90;;
3527;SDS011;1778;47.966;7.854;2023-07-02T00:44:33;3.80;;;3.70;;
3527;SDS011;1778;47.966;7.854;2023-07-02T00:45:42;4.67;;;4.47;;
3527;SDS011;1778;47.966;7.854;2023-07-02T00:46:43;3.90;;;3.80;;
3527;SDS011;1778;47.966;7.854;2023-07-02T00:47:46;4.00;;;3.90;;
3527;SDS011;1778;47.966;7.854;2023-07-02T00:48:49;4.33;;;4.07;;
3527;SDS011;1778;47.966;7.854;2023-07-02T00:49:52;4.23;;;4.13;;
3527;SDS011;1778;47.966;7.854;2023-07-02T00:50:54;4.40;;;4.10;;
3527;SDS011;1778;47.966;7.854;2023-07-02T00:51:56;4.17;;;4.07;;
3527;SDS011;1778;47.966;7.854;2023-07-02T00:52:58;3.87;;;3.67;;
3527;SDS011;1778;47.966;7.854;2023-07-02T00:54:00;4.10;;;3.90;;
3527;SDS011;1778;47.966;7.854;2023-07-02T00:55:02;3.87;;;3.77;;
3527;SDS011;1778;47.966;7.854;2023-07-02T00:56:04;4.20;;;4.00;;
3527;SDS011;1778;47.966;7.854;2023-07-02T00:57:06;4.30;;;4.20;;
3527;SDS011;1778;47.966;7.854;2023-07-02T00:58:08;4.40;;;4.20;;
3527;SDS011;1778;47.966;7.854;2023-07-02T00:59:12;3.80;;;3.70;;
3527;SDS011;1778;47.966;7.854;2023-07-02T01:00:14;4.67;;;4.47;;
3527;SDS011;1778;47.966;7.854;2023-07-02T01:02:19;3.90;;;3.80;;
3527;SDS011;1778;47.966;7.854;2023-07-02T01:03:21;4.90;;;4.70;;
3527;SDS011;1778;47.966;7.854;2023-07-02T01:04:22;4.50;;;4.30;;
3527;SDS011;1778;47.966;7.854;2023-07-02T01:05:30;4.57;;;4.37;;
3527;SDS011;1778;47.966;7.854;2023-07-02T01:06:38;5.07;;;4.70;;
3527;SDS011;1778;47.966;7.854;2023-07-02T01:07:42;4.47;;;4.27;;
3527;SDS011;1778;47.966;7.854;2023-07-02T01:08:45;4.57;;;4.27;;
3527;SDS011;1778;47.966;7.854;2023-07-02T01:09:46;4.73;;;4.30;;
3527;SDS011;1778;47.966;7.854;2023-07-02T01:10:48;4.50;;;4.07;;
3527;SDS011;1778;47.966;7.854;2023-07-02T01:11:50;4.70;;;4.50;;
3527;SDS011;1778;47.966;7.854;2023-07-02T01:13:06;4.50;;;4.30;;
3527;SDS011;1778;47.966;7.854;2023-07-02T01:14:17;4.23;;;4.13;;
3527;SDS011;1778;47.966;7.854;2023-07-02T01:15:45;4.10;;;4.00;;
3527;SDS011;1778;47.966;7.854;2023-07-02T01:16:48;4.47;;;4.27;;
3527;SDS011;1778;47.966;7.854;2023-07-02T01:17:53;4.30;;;4.10;;
3527;SDS011;1778;47.966;7.854;2023-07-02T01:18:56;3.97;;;3.80;;
3527;SDS011;1778;47.966;7.854;2023-07-02T01:19:58;4.43;;;4.23;;
3527;SDS011;1778;47.966;7.854;2023-07-02T01:21:01;4.70;;;4.40;;
3527;SDS011;1778;47.966;7.854;2023-07-02T01:22:07;4.60;;;4.37;;
3527;SDS011;1778;47.966;7.854;2023-07-02T01:23:10;5.10;;;4.07;;
3527;SDS011;1778;47.966;7.854;2023-07-02T01:24:12;4.03;;;3.83;;
3527;SDS011;1778;47.966;7.854;2023-07-02T01:25:15;4.40;;;4.20;;
3527;SDS011;1778;47.966;7.854;2023-07-02T01:26:17;3.60;;;3.50;;
3527;SDS011;1778;47.966;7.854;2023-07-02T01:27:20;4.07;;;3.80;;
3527;SDS011;1778;47.966;7.854;2023-07-02T01:28:22;3.70;;;3.60;;
3527;SDS011;1778;47.966;7.854;2023-07-02T01:29:25;4.80;;;4.50;;
3527;SDS011;1778;47.966;7.854;2023-07-02T01:30:27;4.07;;;3.80;;
3527;SDS011;1778;47.966;7.854;2023-07-02T01:31:28;4.30;;;4.10;;
3527;SDS011;1778;47.966;7.854;2023-07-02T01:32:30;4.13;;;3.93;;
3527;SDS011;1778;47.966;7.854;2023-07-02T01:33:31;4.20;;;3.90;;
3527;SDS011;1778;47.966;7.854;2023-07-02T01:34:33;3.53;;;3.43;;
3527;SDS011;1778;47.966;7.854;2023-07-02T01:35:35;3.97;;;3.83;;
3527;SDS011;1778;47.966;7.854;2023-07-02T01:36:37;3.73;;;3.50;;
3527;SDS011;1778;47.966;7.854;2023-07-02T01:37:39;3.60;;;3.47;;
3527;SDS011;1778;47.966;7.854;2023-07-02T01:38:41;4.63;;;4.43;;
3527;SDS011;1778;47.966;7.854;2023-07-02T01:39:42;3.37;;;3.27;;
3527;SDS011;1778;47.966;7.854;2023-07-02T01:40:45;4.40;;;4.10;;
3527;SDS011;1778;47.966;7.854;2023-07-02T01:41:54;4.77;;;4.40;;
3527;SDS011;1778;47.966;7.854;2023-07-02T01:43:08;4.63;;;4.27;;
3527;SDS011;1778;47.966;7.854;2023-07-02T01:44:09;3.83;;;3.63;;
3527;SDS011;1778;47.966;7.854;2023-07-02T01:45:12;4.30;;;4.10;;
3527;SDS011;1778;47.966;7.854;2023-07-02T01:46:13;4.00;;;3.90;;
3527;SDS011;1778;47.966;7.854;2023-07-02T01:47:15;4.10;;;3.90;;
3527;SDS011;1778;47.966;7.854;2023-07-02T01:48:18;5.20;;;4.33;;
3527;SDS011;1778;47.966;7.854;2023-07-02T01:49:20;3.57;;;3.37;;
3527;SDS011;1778;47.966;7.854;2023-07-02T01:50:22;5.17;;;4.80;;
3527;SDS011;1778;47.966;7.854;2023-07-02T01:51:23;4.07;;;3.77;;
3527;SDS011;1778;47.966;7.854;2023-07-02T01:52:25;3.97;;;3.63;;
3527;SDS011;1778;47.966;7.854;2023-07-02T01:53:27;3.97;;;3.70;;
3527;SDS011;1778;47.966;7.854;2023-07-02T01:54:29;3.80;;;3.60;;
3527;SDS011;1778;47.966;7.854;2023-07-02T01:55:32;3.83;;;3.70;;
3527;SDS011;1778;47.966;7.854;2023-07-02T01:56:34;3.53;;;3.43;;
3527;SDS011;1778;47.966;7.854;2023-07-02T01:57:35;3.80;;;3.70;;
3527;SDS011;1778;47.966;7.854;2023-07-02T01:58:37;3.90;;;3.70;;
3527;SDS011;1778;47.966;7.854;2023-07-02T01:59:39;3.33;;;3.23;;
3527;SDS011;1778;47.966;7.854;2023-07-02T02:00:40;4.00;;;3.80;;
3527;SDS011;1778;47.966;7.854;2023-07-02T02:01:42;3.90;;;3.60;;
3527;SDS011;1778;47.966;7.854;2023-07-02T02:02:44;3.80;;;3.60;;
3527;SDS011;1778;47.966;7.854;2023-07-02T02:03:45;4.10;;;3.90;;
3527;SDS011;1778;47.966;7.854;2023-07-02T02:04:47;3.80;;;3.50;;
3527;SDS011;1778;47.966;7.854;2023-07-02T02:05:49;4.83;;;4.40;;
3527;SDS011;1778;47.966;7.854;2023-07-02T02:06:52;4.13;;;3.83;;
3527;SDS011;1778;47.966;7.854;2023-07-02T02:07:54;4.00;;;3.80;;
3527;SDS011;1778;47.966;7.854;2023-07-02T02:08:56;4.00;;;3.80;;
3527;SDS011;1778;47.966;7.854;2023-07-02T02:09:57;3.70;;;3.50;;
3527;SDS011;1778;47.966;7.854;2023-07-02T02:10:59;4.20;;;4.00;;
3527;SDS011;1778;47.966;7.854;2023-07-02T02:12:02;4.17;;;3.90;;
3527;SDS011;1778;47.966;7.854;2023-07-02T02:13:04;3.50;;;3.40;;
3527;SDS011;1778;47.966;7.854;2023-07-02T02:14:05;3.70;;;3.60;;
3527;SDS011;1778;47.966;7.854;2023-07-02T02:15:07;4.00;;;3.80;;
3527;SDS011;1778;47.966;7.854;2023-07-02T02:16:10;4.47;;;4.07;;
3527;SDS011;1778;47.966;7.854;2023-07-02T02:17:12;3.70;;;3.50;;
3527;SDS011;1778;47.966;7.854;2023-07-02T02:18:15;4.13;;;3.93;;
3527;SDS011;1778;47.966;7.854;2023-07-02T02:19:16;3.80;;;3.63;;
3527;SDS011;1778;47.966;7.854;2023-07-02T02:20:18;4.07;;;3.80;;
3527;SDS011;1778;47.966;7.854;2023-07-02T02:21:20;4.47;;;4.07;;
3527;SDS011;1778;47.966;7.854;2023-07-02T02:22:22;3.63;;;3.50;;
3527;SDS011;1778;47.966;7.854;2023-07-02T02:23:24;3.33;;;3.23;;
3527;SDS011;1778;47.966;7.854;2023-07-02T02:24:25;3.70;;;3.60;;
3527;SDS011;1778;47.966;7.854;2023-07-02T02:25:28;3.47;;;3.30;;
3527;SDS011;1778;47.966;7.854;2023-07-02T02:26:30;4.30;;;4.10;;
3527;SDS011;1778;47.966;7.854;2023-07-02T02:27:31;4.30;;;4.03;;
3527;SDS011;1778;47.966;7.854;2023-07-02T02:28:33;3.63;;;3.43;;
3527;SDS011;1778;47.966;7.854;2023-07-02T02:29:35;8.77;;;3.67;;
3527;SDS011;1778;47.966;7.854;2023-07-02T02:30:36;3.77;;;3.57;;
3527;SDS011;1778;47.966;7.854;2023-07-02T02:31:39;4.13;;;3.93;;
3527;SDS011;1778;47.966;7.854;2023-07-02T02:32:41;4.00;;;3.90;;
3527;SDS011;1778;47.966;7.854;2023-07-02T02:33:44;3.40;;;3.30;;
3527;SDS011;1778;47.966;7.854;2023-07-02T02:34:46;4.10;;;3.70;;
3527;SDS011;1778;47.966;7.854;2023-07-02T02:35:48;4.00;;;3.80;;
3527;SDS011;1778;47.966;7.854;2023-07-02T02:36:50;3.53;;;3.43;;
3527;SDS011;1778;47.966;7.854;2023-07-02T02:37:51;3.90;;;3.70;;
3527;SDS011;1778;47.966;7.854;2023-07-02T02:38:53;4.00;;;3.67;;
3527;SDS011;1778;47.966;7.854;2023-07-02T02:39:55;4.23;;;4.00;;
3527;SDS011;1778;47.966;7.854;2023-07-02T02:41:00;3.60;;;3.50;;
3527;SDS011;1778;47.966;7.854;2023-07-02T02:42:07;4.00;;;3.80;;
3527;SDS011;1778;47.966;7.854;2023-07-02T02:43:09;4.20;;;4.00;;
3527;SDS011;1778;47.966;7.854;2023-07-02T02:44:12;4.53;;;4.23;;
3527;SDS011;1778;47.966;7.854;2023-07-02T02:45:14;4.13;;;3.93;;
3527;SDS011;1778;47.966;7.854;2023-07-02T02:46:21;4.77;;;4.47;;
3527;SDS011;1778;47.966;7.854;2023-07-02T02:47:24;5.53;;;4.00;;
3527;SDS011;1778;47.966;7.854;2023-07-02T02:48:26;4.20;;;3.90;;
3527;SDS011;1778;47.966;7.854;2023-07-02T02:49:27;8.53;;;3.40;;
3527;SDS011;1778;47.966;7.854;2023-07-02T02:50:29;4.03;;;3.63;;
3527;SDS011;1778;47.966;7.854;2023-07-02T02:51:31;3.60;;;3.40;;
3527;SDS011;1778;47.966;7.854;2023-07-02T02:52:33;3.87;;;3.63;;
3527;SDS011;1778;47.966;7.854;2023-07-02T02:53:34;3.93;;;3.73;;
3527;SDS011;1778;47.966;7.854;2023-07-02T02:54:37;4.53;;;4.23;;
3527;SDS011;1778;47.966;7.854;2023-07-02T02:55:39;3.50;;;3.40;;
3527;SDS011;1778;47.966;7.854;2023-07-02T02:56:40;3.30;;;3.20;;
3527;SDS011;1778;47.966;7.854;2023-07-02T02:57:43;4.57;;;4.30;;
3527;SDS011;1778;47.966;7.854;2023-07-02T02:58:44;3.60;;;3.40;;
3527;SDS011;1778;47.966;7.854;2023-07-02T02:59:46;3.90;;;3.70;;
3527;SDS011;1778;47.966;7.854;2023-07-02T03:00:48;3.70;;;3.50;;
3527;SDS011;1778;47.966;7.854;2023-07-02T03:01:50;4.00;;;3.80;;
3527;SDS011;1778;47.966;7.854;2023-07-02T03:02:53;3.87;;;3.67;;
3527;SDS011;1778;47.966;7.854;2023-07-02T03:03:55;3.90;;;3.70;;
3527;SDS011;1778;47.966;7.854;2023-07-02T03:04:57;4.33;;;3.93;;
3527;SDS011;1778;47.966;7.854;2023-07-02T03:06:03;3.93;;;3.80;;
3527;SDS011;1778;47.966;7.854;2023-07-02T03:07:05;4.10;;;3.80;;
3527;SDS011;1778;47.966;7.854;2023-07-02T03:08:08;9.80;;;4.63;;
3527;SDS011;1778;47.966;7.854;2023-07-02T03:09:10;4.03;;;3.83;;
3527;SDS011;1778;47.966;7.854;2023-07-02T03:10:12;4.17;;;3.93;;
3527;SDS011;1778;47.966;7.854;2023-07-02T03:11:13;4.30;;;4.00;;
3527;SDS011;1778;47.966;7.854;2023-07-02T03:12:15;3.73;;;3.63;;
3527;SDS011;1778;47.966;7.854;2023-07-02T03:13:17;3.80;;;3.60;;
3527;SDS011;1778;47.966;7.854;2023-07-02T03:14:18;4.40;;;3.50;;
3527;SDS011;1778;47.966;7.854;2023-07-02T03:15:20;10.73;;;3.53;;
3527;SDS011;1778;47.966;7.854;2023-07-02T03:16:21;4.50;;;3.97;;
3527;SDS011;1778;47.966;7.854;2023-07-02T03:17:23;3.53;;;3.43;;
3527;SDS011;1778;47.966;7.854;2023-07-02T03:18:25;3.23;;;3.13;;
3527;SDS011;1778;47.966;7.854;2023-07-02T03:19:27;3.70;;;3.50;;
3527;SDS011;1778;47.966;7.854;2023-07-02T03:20:28;3.90;;;3.70;;
3527;SDS011;1778;47.966;7.854;2023-07-02T03:21:30;3.97;;;3.73;;
3527;SDS011;1778;47.966;7.854;2023-07-02T03:22:33;3.80;;;3.60;;
3527;SDS011;1778;47.966;7.854;2023-07-02T03:23:34;3.97;;;3.67;;
3527;SDS011;1778;47.966;7.854;2023-07-02T03:24:36;9.57;;;4.10;;
3527;SDS011;1778;47.966;7.854;2023-07-02T03:25:38;4.23;;;3.93;;
3527;SDS011;1778;47.966;7.854;2023-07-02T03:26:40;5.73;;;4.20;;
3527;SDS011;1778;47.966;7.854;2023-07-02T03:27:42;4.10;;;3.90;;
3527;SDS011;1778;47.966;7.854;2023-07-02T03:28:44;4.23;;;4.00;;
3527;SDS011;1778;47.966;7.854;2023-07-02T03:29:45;3.97;;;3.77;;
3527;SDS011;1778;47.966;7.854;2023-07-02T03:30:47;3.40;;;3.20;;
3527;SDS011;1778;47.966;7.854;2023-07-02T03:31:49;4.50;;;4.20;;
3527;SDS011;1778;47.966;7.854;2023-07-02T03:32:51;3.90;;;3.60;;
3527;SDS011;1778;47.966;7.854;2023-07-02T03:33:52;4.70;;;4.50;;
3527;SDS011;1778;47.966;7.854;2023-07-02T03:34:53;3.50;;;3.40;;
3527;SDS011;1778;47.966;7.854;2023-07-02T03:35:56;4.30;;;4.10;;
3527;SDS011;1778;47.966;7.854;2023-07-02T03:36:57;3.90;;;3.67;;
3527;SDS011;1778;47.966;7.854;2023-07-02T03:37:58;3.33;;;3.23;;
3527;SDS011;1778;47.966;7.854;2023-07-02T03:39:00;3.53;;;3.30;;
3527;SDS011;1778;47.966;7.854;2023-07-02T03:40:02;4.13;;;3.80;;
3527;SDS011;1778;47.966;7.854;2023-07-02T03:41:04;8.67;;;3.30;;
3527;SDS011;1778;47.966;7.854;2023-07-02T03:42:05;3.83;;;3.63;;
3527;SDS011;1778;47.966;7.854;2023-07-02T03:43:07;4.00;;;3.80;;
3527;SDS011;1778;47.966;7.854;2023-07-02T03:44:09;3.80;;;3.60;;
3527;SDS011;1778;47.966;7.854;2023-07-02T03:45:10;4.20;;;3.90;;
3527;SDS011;1778;47.966;7.854;2023-07-02T03:46:12;3.90;;;3.70;;
3527;SDS011;1778;47.966;7.854;2023-07-02T03:47:14;4.53;;;4.03;;
3527;SDS011;1778;47.966;7.854;2023-07-02T03:48:17;3.73;;;3.40;;
3527;SDS011;1778;47.966;7.854;2023-07-02T03:49:18;3.90;;;3.70;;
3527;SDS011;1778;47.966;7.854;2023-07-02T03:50:20;4.27;;;3.97;;
3527;SDS011;1778;47.966;7.854;2023-07-02T03:51:22;3.90;;;3.70;;
3527;SDS011;1778;47.966;7.854;2023-07-02T03:52:24;3.70;;;3.53;;
3527;SDS011;1778;47.966;7.854;2023-07-02T03:53:25;3.23;;;3.10;;
3527;SDS011;1778;47.966;7.854;2023-07-02T03:54:27;4.10;;;3.80;;
3527;SDS011;1778;47.966;7.854;2023-07-02T03:55:29;3.90;;;3.60;;
3527;SDS011;1778;47.966;7.854;2023-07-02T03:56:30;3.13;;;3.03;;
3527;SDS011;1778;47.966;7.854;2023-07-02T03:57:32;3.87;;;3.57;;
3527;SDS011;1778;47.966;7.854;2023-07-02T03:58:33;5.33;;;4.30;;
3527;SDS011;1778;47.966;7.854;2023-07-02T03:59:34;6.10;;;4.60;;
3527;SDS011;1778;47.966;7.854;2023-07-02T04:00:36;3.43;;;3.23;;
3527;SDS011;1778;47.966;7.854;2023-07-02T04:01:38;3.30;;;3.10;;
3527;SDS011;1778;47.966;7.854;2023-07-02T04:02:40;4.10;;;3.90;;
3527;SDS011;1778;47.966;7.854;2023-07-02T04:03:47;3.63;;;3.30;;
3527;SDS011;1778;47.966;7.854;2023-07-02T04:04:53;4.27;;;3.90;;
3527;SDS011;1778;47.966;7.854;2023-07-02T04:05:54;4.03;;;3.73;;
3527;SDS011;1778;47.966;7.854;2023-07-02T04:06:56;3.83;;;3.60;;
3527;SDS011;1778;47.966;7.854;2023-07-02T04:07:58;4.37;;;3.97;;
3527;SDS011;1778;47.966;7.854;2023-07-02T04:09:00;3.53;;;3.33;;
3527;SDS011;1778;47.966;7.854;2023-07-02T04:10:02;4.57;;;4.17;;
3527;SDS011;1778;47.966;7.854;2023-07-02T04:11:04;5.03;;;4.50;;
3527;SDS011;1778;47.966;7.854;2023-07-02T04:12:06;4.07;;;3.83;;
3527;SDS011;1778;47.966;7.854;2023-07-02T04:13:08;7.30;;;4.87;;
3527;SDS011;1778;47.966;7.854;2023-07-02T04:14:09;4.27;;;3.87;;
3527;SDS011;1778;47.966;7.854;2023-07-02T04:15:11;5.57;;;5.03;;
3527;SDS011;1778;47.966;7.854;2023-07-02T04:16:12;11.50;;;5.60;;
3527;SDS011;1778;47.966;7.854;2023-07-02T04:17:14;8.77;;;5.77;;
3527;SDS011;1778;47.966;7.854;2023-07-02T04:18:16;4.00;;;3.70;;
3527;SDS011;1778;47.966;7.854;2023-07-02T04:19:17;9.30;;;4.33;;
3527;SDS011;1778;47.966;7.854;2023-07-02T04:20:19;7.97;;;5.17;;
3527;SDS011;1778;47.966;7.854;2023-07-02T04:21:21;11.53;;;4.87;;
3527;SDS011;1778;47.966;7.854;2023-07-02T04:22:23;5.47;;;4.83;;
3527;SDS011;1778;47.966;7.854;2023-07-02T04:23:25;4.87;;;4.40;;
3527;SDS011;1778;47.966;7.854;2023-07-02T04:24:27;6.53;;;5.20;;
3527;SDS011;1778;47.966;7.854;2023-07-02T04:25:29;7.73;;;5.70;;
3527;SDS011;1778;47.966;7.854;2023-07-02T04:26:50;6.27;;;5.53;;
3527;SDS011;1778;47.966;7.854;2023-07-02T04:28:12;7.27;;;5.10;;
3527;SDS011;1778;47.966;7.854;2023-07-02T04:29:13;9.77;;;5.33;;
3527;SDS011;1778;47.966;7.854;2023-07-02T04:30:15;5.90;;;5.23;;
3527;SDS011;1778;47.966;7.854;2023-07-02T04:31:17;5.40;;;4.23;;
3527;SDS011;1778;47.966;7.854;2023-07-02T04:32:20;13.13;;;6.37;;
3527;SDS011;1778;47.966;7.854;2023-07-02T04:33:21;7.30;;;5.87;;
3527;SDS011;1778;47.966;7.854;2023-07-02T04:34:23;5.27;;;4.60;;
3527;SDS011;1778;47.966;7.854;2023-07-02T04:35:25;8.47;;;4.67;;
3527;SDS011;1778;47.966;7.854;2023-07-02T04:36:27;7.07;;;5.53;;
3527;SDS011;1778;47.966;7.854;2023-07-02T04:37:29;6.77;;;5.13;;
3527;SDS011;1778;47.966;7.854;2023-07-02T04:38:31;11.50;;;5.87;;
3527;SDS011;1778;47.966;7.854;2023-07-02T04:39:32;12.00;;;6.20;;
3527;SDS011;1778;47.966;7.854;2023-07-02T04:40:35;6.50;;;4.97;;
3527;SDS011;1778;47.966;7.854;2023-07-02T04:41:37;11.87;;;6.93;;
3527;SDS011;1778;47.966;7.854;2023-07-02T04:42:38;12.80;;;6.23;;
3527;SDS011;1778;47.966;7.854;2023-07-02T04:43:41;11.77;;;6.70;;
3527;SDS011;1778;47.966;7.854;2023-07-02T04:44:43;7.77;;;5.00;;
3527;SDS011;1778;47.966;7.854;2023-07-02T04:45:44;7.37;;;5.67;;
3527;SDS011;1778;47.966;7.854;2023-07-02T04:46:49;10.37;;;5.90;;
3527;SDS011;1778;47.966;7.854;2023-07-02T04:47:50;7.30;;;5.73;;
3527;SDS011;1778;47.966;7.854;2023-07-02T04:48:52;12.90;;;6.03;;
3527;SDS011;1778;47.966;7.854;2023-07-02T04:49:54;16.40;;;7.40;;
3527;SDS011;1778;47.966;7.854;2023-07-02T04:50:55;10.87;;;6.90;;
3527;SDS011;1778;47.966;7.854;2023-07-02T04:51:57;12.77;;;6.57;;
3527;SDS011;1778;47.966;7.854;2023-07-02T04:52:59;16.67;;;7.50;;
3527;SDS011;1778;47.966;7.854;2023-07-02T04:54:00;13.97;;;6.57;;
3527;SDS011;1778;47.966;7.854;2023-07-02T04:55:02;13.20;;;7.07;;
3527;SDS011;1778;47.966;7.854;2023-07-02T04:56:04;14.77;;;8.40;;
3527;SDS011;1778;47.966;7.854;2023-07-02T04:57:08;11.40;;;6.87;;
3527;SDS011;1778;47.966;7.854;2023-07-02T04:58:10;13.87;;;7.30;;
3527;SDS011;1778;47.966;7.854;2023-07-02T04:59:11;8.77;;;6.27;;
3527;SDS011;1778;47.966;7.854;2023-07-02T05:00:13;10.90;;;7.83;;
3527;SDS011;1778;47.966;7.854;2023-07-02T05:01:15;16.70;;;7.60;;
3527;SDS011;1778;47.966;7.854;2023-07-02T05:02:17;18.20;;;7.20;;
3527;SDS011;1778;47.966;7.854;2023-07-02T05:03:18;15.90;;;7.17;;
3527;SDS011;1778;47.966;7.854;2023-07-02T05:04:20;11.13;;;6.60;;
3527;SDS011;1778;47.966;7.854;2023-07-02T05:05:21;9.93;;;6.57;;
3527;SDS011;1778;47.966;7.854;2023-07-02T05:06:23;14.80;;;7.30;;
3527;SDS011;1778;47.966;7.854;2023-07-02T05:07:25;16.13;;;8.40;;
3527;SDS011;1778;47.966;7.854;2023-07-02T05:08:26;12.63;;;6.47;;
3527;SDS011;1778;47.966;7.854;2023-07-02T05:09:28;14.53;;;7.17;;
3527;SDS011;1778;47.966;7.854;2023-07-02T05:10:29;19.53;;;7.20;;
3527;SDS011;1778;47.966;7.854;2023-07-02T05:11:31;13.20;;;7.07;;
3527;SDS011;1778;47.966;7.854;2023-07-02T05:12:33;12.97;;;6.70;;
3527;SDS011;1778;47.966;7.854;2023-07-02T05:13:34;10.97;;;7.23;;
3527;SDS011;1778;47.966;7.854;2023-07-02T05:14:36;13.03;;;7.67;;
3527;SDS011;1778;47.966;7.854;2023-07-02T05:15:39;14.63;;;7.00;;
3527;SDS011;1778;47.966;7.854;2023-07-02T05:16:42;13.63;;;6.63;;
3527;SDS011;1778;47.966;7.854;2023-07-02T05:17:43;9.70;;;6.87;;
3527;SDS011;1778;47.966;7.854;2023-07-02T05:18:45;10.80;;;6.60;;
3527;SDS011;1778;47.966;7.854;2023-07-02T05:19:46;7.63;;;6.30;;
3527;SDS011;1778;47.966;7.854;2023-07-02T05:20:47;16.40;;;7.73;;
3527;SDS011;1778;47.966;7.854;2023-07-02T05:21:49;13.53;;;7.57;;
3527;SDS011;1778;47.966;7.854;2023-07-02T05:22:51;11.50;;;7.63;;
3527;SDS011;1778;47.966;7.854;2023-07-02T05:23:52;19.93;;;6.97;;
3527;SDS011;1778;47.966;7.854;2023-07-02T05:24:54;8.70;;;6.70;;
3527;SDS011;1778;47.966;7.854;2023-07-02T05:25:56;11.53;;;6.70;;
3527;SDS011;1778;47.966;7.854;2023-07-02T05:26:57;13.40;;;7.03;;
3527;SDS011;1778;47.966;7.854;2023-07-02T05:27:59;10.23;;;7.20;;
3527;SDS011;1778;47.966;7.854;2023-07-02T05:29:01;13.47;;;7.33;;
3527;SDS011;1778;47.966;7.854;2023-07-02T05:30:03;12.33;;;6.67;;
3527;SDS011;1778;47.966;7.854;2023-07-02T05:31:05;12.00;;;7.10;;
3527;SDS011;1778;47.966;7.854;2023-07-02T05:32:07;8.77;;;6.30;;
3527;SDS011;1778;47.966;7.854;2023-07-02T05:33:08;13.30;;;6.53;;
3527;SDS011;1778;47.966;7.854;2023-07-02T05:34:10;12.17;;;7.67;;
3527;SDS011;1778;47.966;7.854;2023-07-02T05:35:12;10.53;;;7.80;;
3527;SDS011;1778;47.966;7.854;2023-07-02T05:36:13;10.60;;;6.83;;
3527;SDS011;1778;47.966;7.854;2023-07-02T05:37:16;11.00;;;6.50;;
3527;SDS011;1778;47.966;7.854;2023-07-02T05:38:18;11.90;;;6.77;;
3527;SDS011;1778;47.966;7.854;2023-07-02T05:39:20;8.47;;;6.17;;
3527;SDS011;1778;47.966;7.854;2023-07-02T05:40:22;7.87;;;6.00;;
3527;SDS011;1778;47.966;7.854;2023-07-02T05:41:24;11.60;;;7.27;;
3527;SDS011;1778;47.966;7.854;2023-07-02T05:42:31;9.27;;;6.77;;
3527;SDS011;1778;47.966;7.854;2023-07-02T05:43:32;10.30;;;6.90;;
3527;SDS011;1778;47.966;7.854;2023-07-02T05:44:34;8.67;;;6.80;;
3527;SDS011;1778;47.966;7.854;2023-07-02T05:45:35;12.10;;;7.00;;
3527;SDS011;1778;47.966;7.854;2023-07-02T05:46:37;14.27;;;7.40;;
3527;SDS011;1778;47.966;7.854;2023-07-02T05:47:38;12.77;;;7.80;;
3527;SDS011;1778;47.966;7.854;2023-07-02T05:48:40;22.60;;;7.30;;
3527;SDS011;1778;47.966;7.854;2023-07-02T05:49:42;14.20;;;7.87;;
3527;SDS011;1778;47.966;7.854;2023-07-02T05:50:52;14.40;;;7.27;;
3527;SDS011;1778;47.966;7.854;2023-07-02T05:51:53;14.37;;;8.27;;
3527;SDS011;1778;47.966;7.854;2023-07-02T05:52:55;11.33;;;6.50;;
3527;SDS011;1778;47.966;7.854;2023-07-02T05:53:56;13.43;;;8.43;;
3527;SDS011;1778;47.966;7.854;2023-07-02T05:54:58;12.30;;;8.00;;
3527;SDS011;1778;47.966;7.854;2023-07-02T05:55:59;9.57;;;6.90;;
3527;SDS011;1778;47.966;7.854;2023-07-02T05:57:02;11.50;;;6.73;;
3527;SDS011;1778;47.966;7.854;2023-07-02T05:58:04;16.07;;;7.77;;
3527;SDS011;1778;47.966;7.854;2023-07-02T05:59:05;9.40;;;6.77;;
3527;SDS011;1778;47.966;7.854;2023-07-02T06:00:07;9.40;;;6.50;;
3527;SDS011;1778;47.966;7.854;2023-07-02T06:01:12;11.23;;;7.50;;
3527;SDS011;1778;47.966;7.854;2023-07-02T06:02:15;9.47;;;6.43;;
3527;SDS011;1778;47.966;7.854;2023-07-02T06:03:17;9.77;;;6.60;;
3527;SDS011;1778;47.966;7.854;2023-07-02T06:04:21;17.73;;;7.77;;
3527;SDS011;1778;47.966;7.854;2023-07-02T06:05:23;14.83;;;8.10;;
3527;SDS011;1778;47.966;7.854;2023-07-02T06:06:24;15.43;;;7.97;;
3527;SDS011;1778;47.966;7.854;2023-07-02T06:07:26;14.97;;;8.50;;
3527;SDS011;1778;47.966;7.854;2023-07-02T06:08:28;17.40;;;8.67;;
3527;SDS011;1778;47.966;7.854;2023-07-02T06:09:29;13.87;;;7.63;;
3527;SDS011;1778;47.966;7.854;2023-07-02T06:10:31;17.33;;;8.50;;
3527;SDS011;1778;47.966;7.854;2023-07-02T06:11:32;16.60;;;9.00;;
3527;SDS011;1778;47.966;7.854;2023-07-02T06:12:34;12.53;;;7.00;;
3527;SDS011;1778;47.966;7.854;2023-07-02T06:13:35;11.43;;;7.37;;
3527;SDS011;1778;47.966;7.854;2023-07-02T06:14:37;15.53;;;9.07;;
3527;SDS011;1778;47.966;7.854;2023-07-02T06:15:38;14.77;;;7.77;;
3527;SDS011;1778;47.966;7.854;2023-07-02T06:16:40;14.90;;;8.10;;
3527;SDS011;1778;47.966;7.854;2023-07-02T06:17:43;23.07;;;8.70;;
3527;SDS011;1778;47.966;7.854;2023-07-02T06:18:44;19.03;;;9.00;;
3527;SDS011;1778;47.966;7.854;2023-07-02T06:19:46;12.93;;;7.70;;
3527;SDS011;1778;47.966;7.854;2023-07-02T06:20:48;19.13;;;8.03;;
3527;SDS011;1778;47.966;7.854;2023-07-02T06:21:50;14.80;;;8.03;;
3527;SDS011;1778;47.966;7.854;2023-07-02T06:22:52;11.20;;;7.80;;
3527;SDS011;1778;47.966;7.854;2023-07-02T06:23:54;12.43;;;8.70;;
3527;SDS011;1778;47.966;7.854;2023-07-02T06:24:56;10.40;;;7.90;;
3527;SDS011;1778;47.966;7.854;2023-07-02T06:25:57;15.93;;;8.80;;
3527;SDS011;1778;47.966;7.854;2023-07-02T06:27:00;17.70;;;8.23;;
3527;SDS011;1778;47.966;7.854;2023-07-02T06:28:02;13.70;;;8.07;;